Time;durP1;ratioP1;P1;durP2;ratioP2;P2;SDS_P1;SDS_P2;PMS_P1;PMS_P2;Temp;Humidity;BMP_temperature;BMP_pressure;BME280_temperature;BME280_humidity;BME280_pressure;Samples;Min_cycle;Max_cycle;Signal;HPM_P1;HPM_P2
2022/09/21 00:02:20;;;;;;;4.18;2.70;;;7.20;99.90;;;;;;5023586;28;20377;-90
2022/09/21 00:04:46;;;;;;;7.05;3.33;;;7.20;99.90;;;;;;5020072;28;20044;-90
2022/09/21 00:07:12;;;;;;;4.95;2.83;;;7.30;99.90;;;;;;5019839;28;21920;-92
2022/09/21 00:09:40;;;;;;;6.88;2.97;;;7.30;99.90;;;;;;5018596;28;20115;-90
2022/09/21 00:12:06;;;;;;;5.18;2.72;;;7.20;99.90;;;;;;5026472;28;20033;-91
2022/09/21 00:14:31;;;;;;;5.75;3.00;;;7.10;99.90;;;;;;5030856;28;20128;-91
2022/09/21 00:16:57;;;;;;;5.25;2.85;;;7.20;99.90;;;;;;5020361;28;20060;-90
2022/09/21 00:19:23;;;;;;;6.38;3.03;;;7.10;99.90;;;;;;5018337;28;20070;-91
2022/09/21 00:21:52;;;;;;;6.03;3.60;;;7.20;99.90;;;;;;5035847;28;20061;-91
2022/09/21 00:24:18;;;;;;;7.38;3.20;;;7.10;99.90;;;;;;5012394;28;20047;-91
2022/09/21 00:26:43;;;;;;;5.57;3.60;;;7.10;99.90;;;;;;5032956;28;20049;-92
2022/09/21 00:29:09;;;;;;;7.00;3.95;;;7.10;99.90;;;;;;5036162;28;20358;-90
2022/09/21 00:31:35;;;;;;;6.30;3.47;;;7.00;99.90;;;;;;5017751;28;20037;-91
2022/09/21 00:34:02;;;;;;;5.47;3.50;;;7.10;99.90;;;;;;5008870;28;20029;-91
2022/09/21 00:36:28;;;;;;;6.55;3.22;;;7.10;99.90;;;;;;5031121;28;20037;-90
2022/09/21 00:39:01;;;;;;;5.32;3.33;;;7.10;99.90;;;;;;5008145;28;20056;-89
2022/09/21 00:41:28;;;;;;;6.45;3.30;;;7.20;99.90;;;;;;5018570;28;20047;-91
2022/09/21 00:44:22;;;;;;;6.03;3.20;;;7.00;99.90;;;;;;5018281;28;20040;-92
2022/09/21 00:46:52;;;;;;;8.48;3.40;;;7.10;99.90;;;;;;5019315;28;20392;-90
2022/09/21 00:49:18;;;;;;;10.85;3.95;;;7.00;99.90;;;;;;5033136;28;20037;-90
2022/09/21 00:51:45;;;;;;;5.68;3.40;;;7.10;99.90;;;;;;5035782;28;20047;-91
2022/09/21 00:54:18;;;;;;;6.28;2.95;;;7.00;99.90;;;;;;5009775;28;20043;-91
2022/09/21 00:56:45;;;;;;;9.05;3.70;;;7.00;99.90;;;;;;5033427;28;20037;-90
2022/09/21 00:59:13;;;;;;;8.90;4.57;;;7.00;99.90;;;;;;5016470;28;20037;-91
2022/09/21 01:01:40;;;;;;;6.43;3.88;;;7.30;99.90;;;;;;5013128;28;20126;-91
2022/09/21 01:04:07;;;;;;;9.13;4.40;;;7.10;99.90;;;;;;5020621;28;20096;-91
2022/09/21 01:06:36;;;;;;;7.63;3.92;;;7.20;99.90;;;;;;5025110;28;20138;-90
2022/09/21 01:09:02;;;;;;;7.47;2.65;;;7.10;99.90;;;;;;5030634;28;20071;-91
2022/09/21 01:11:27;;;;;;;85.63;6.53;;;6.90;99.90;;;;;;5014191;28;20500;-90
2022/09/21 01:14:10;;;;;;;6.18;2.92;;;6.80;99.90;;;;;;5017913;28;20030;-91
2022/09/21 01:17:05;;;;;;;5.32;3.22;;;6.80;99.90;;;;;;5028880;28;20176;-91
2022/09/21 01:19:34;;;;;;;4.30;2.30;;;6.70;99.90;;;;;;5034526;28;20233;-92
2022/09/21 01:22:30;;;;;;;196.13;10.70;;;6.80;99.90;;;;;;5014156;28;20083;-91
2022/09/21 01:25:05;;;;;;;6.38;2.72;;;6.60;99.90;;;;;;5026182;28;20122;-90
2022/09/21 01:27:37;;;;;;;5.13;2.97;;;6.70;99.90;;;;;;5017660;28;20040;-90
2022/09/21 01:30:15;;;;;;;4.55;2.40;;;6.60;99.90;;;;;;5016613;28;20088;-91
2022/09/21 01:32:51;;;;;;;5.05;2.25;;;6.60;99.90;;;;;;5014848;28;20068;-91
2022/09/21 01:35:33;;;;;;;4.35;2.70;;;6.60;99.90;;;;;;5016478;28;20041;-90
2022/09/21 01:38:06;;;;;;;5.72;2.90;;;6.60;99.90;;;;;;5013250;28;20025;-91
2022/09/21 01:40:42;;;;;;;3.05;2.45;;;6.50;99.90;;;;;;5031860;28;20045;-90
2022/09/21 01:43:13;;;;;;;7.82;2.90;;;6.50;99.90;;;;;;5026955;28;20045;-92
2022/09/21 01:45:44;;;;;;;5.75;3.10;;;6.60;99.90;;;;;;5018211;28;20045;-90
2022/09/21 01:48:12;;;;;;;7.95;4.28;;;6.50;99.90;;;;;;5013200;28;20045;-90
2022/09/21 01:50:45;;;;;;;5.80;2.30;;;6.60;99.90;;;;;;5016845;28;20125;-91
2022/09/21 01:53:37;;;;;;;5.28;3.45;;;6.50;99.90;;;;;;5018168;28;20040;-91
2022/09/21 01:56:17;;;;;;;5.80;3.95;;;6.40;99.90;;;;;;5014364;28;20507;-91
2022/09/21 01:58:51;;;;;;;6.32;3.72;;;6.60;99.90;;;;;;5011485;28;20029;-91
2022/09/21 02:01:21;;;;;;;4.80;3.53;;;6.60;99.90;;;;;;5012657;28;20049;-90
2022/09/21 02:03:56;;;;;;;5.53;3.10;;;6.60;99.90;;;;;;5017948;28;20049;-92
2022/09/21 02:06:25;;;;;;;5.47;2.85;;;6.50;99.90;;;;;;5016028;28;20046;-91
2022/09/21 02:08:52;;;;;;;10.77;3.63;;;6.50;99.90;;;;;;5018533;28;20097;-92
2022/09/21 02:11:17;;;;;;;5.38;3.42;;;6.50;99.90;;;;;;5020550;28;20500;-90
2022/09/21 02:13:47;;;;;;;6.28;3.78;;;6.40;99.90;;;;;;5030334;28;20037;-91
2022/09/21 02:16:29;;;;;;;6.15;2.70;;;6.60;99.90;;;;;;5020416;28;20143;-92
2022/09/21 02:19:08;;;;;;;6.65;3.10;;;6.50;99.90;;;;;;5021056;28;20036;-90
2022/09/21 02:22:19;;;;;;;6.55;3.67;;;6.30;99.90;;;;;;5019874;28;20082;-91
2022/09/21 02:25:07;;;;;;;6.32;3.10;;;6.30;99.90;;;;;;5035437;28;20524;-91
2022/09/21 02:27:52;;;;;;;5.70;3.13;;;6.30;99.90;;;;;;5044449;28;20123;-91
2022/09/21 02:30:20;;;;;;;7.32;2.85;;;6.40;99.90;;;;;;5042995;28;20083;-91
2022/09/21 02:33:08;;;;;;;3.88;2.42;;;6.20;99.90;;;;;;5027896;28;20044;-92
2022/09/21 02:35:58;;;;;;;3.05;2.00;;;6.20;99.90;;;;;;5023407;28;20028;-92
2022/09/21 02:38:57;;;;;;;7.00;2.47;;;6.20;99.90;;;;;;5039790;28;20033;-92
2022/09/21 02:41:37;;;;;;;6.10;3.30;;;6.30;99.90;;;;;;5027092;28;20049;-91
2022/09/21 02:44:22;;;;;;;4.18;2.80;;;6.20;99.90;;;;;;5039949;28;20047;-91
2022/09/21 02:46:48;;;;;;;;;;;6.20;99.90;;;;;;5020965;28;20479;-91
2022/09/21 02:49:25;;;;;;;5.28;2.67;;;6.40;99.90;;;;;;5016542;28;19979;-91
2022/09/21 02:52:13;;;;;;;4.97;2.30;;;6.20;99.90;;;;;;5017294;28;20217;-92
2022/09/21 02:54:46;;;;;;;5.25;2.70;;;6.20;99.90;;;;;;5021651;28;20043;-91
2022/09/21 02:57:15;;;;;;;3.22;2.42;;;6.20;99.90;;;;;;5027441;28;20072;-92
2022/09/21 02:59:42;;;;;;;6.00;2.80;;;6.20;99.90;;;;;;5023549;28;20381;-93
2022/09/21 03:02:11;;;;;;;4.82;2.78;;;6.20;99.90;;;;;;5024690;28;20032;-91
2022/09/21 03:04:40;;;;;;;4.28;2.72;;;6.20;99.90;;;;;;5023415;28;20270;-92
2022/09/21 03:07:09;;;;;;;3.55;2.63;;;6.20;99.90;;;;;;5034933;28;20048;-92
2022/09/21 03:09:35;;;;;;;7.03;2.85;;;6.10;99.90;;;;;;5030314;28;20045;-92
2022/09/21 03:12:01;;;;;;;4.20;2.80;;;6.20;99.90;;;;;;5046832;28;20040;-92
2022/09/21 03:14:27;;;;;;;4.60;2.58;;;6.20;99.90;;;;;;5016358;28;20345;-91
2022/09/21 03:16:55;;;;;;;3.63;3.00;;;6.10;99.90;;;;;;5022372;28;20072;-90
2022/09/21 03:19:21;;;;;;;4.32;2.70;;;6.10;99.90;;;;;;5027167;28;20125;-92
2022/09/21 03:21:47;;;;;;;3.00;2.20;;;6.10;99.90;;;;;;5036904;28;20045;-92
2022/09/21 03:24:44;;;;;;;3.42;2.25;;;6.20;99.90;;;;;;5022853;28;20100;-91
2022/09/21 03:27:01;;;;;;;5.18;2.55;;;6.10;99.90;;;;;;5035989;28;20197;-93
2022/09/21 03:29:26;;;;;;;5.55;2.80;;;6.00;99.90;;;;;;5023990;28;20263;-91
2022/09/21 03:31:54;;;;;;;3.65;2.67;;;5.90;99.90;;;;;;5029303;28;20473;-91
2022/09/21 03:34:20;;;;;;;4.70;2.60;;;6.00;99.90;;;;;;5045492;28;20502;-92
2022/09/21 03:36:47;;;;;;;3.00;2.40;;;6.00;99.90;;;;;;5020463;28;20033;-92
2022/09/21 03:39:16;;;;;;;5.28;2.70;;;5.90;99.90;;;;;;5048513;28;20037;-91
2022/09/21 03:41:42;;;;;;;5.95;2.33;;;5.90;99.90;;;;;;5037320;28;20059;-93
2022/09/21 03:44:07;;;;;;;3.03;2.03;;;5.90;99.90;;;;;;5032832;28;20480;-92
2022/09/21 03:46:35;;;;;;;2.92;2.00;;;5.90;99.90;;;;;;5039711;28;20033;-92
2022/09/21 03:49:04;;;;;;;4.90;3.55;;;6.00;99.90;;;;;;5032721;28;20140;-92
2022/09/21 03:51:30;;;;;;;4.85;3.15;;;5.90;99.90;;;;;;5014226;28;20676;-91
2022/09/21 03:53:56;;;;;;;5.25;3.00;;;5.80;99.90;;;;;;5030008;28;20029;-92
2022/09/21 03:56:22;;;;;;;4.05;2.72;;;5.90;99.90;;;;;;5018676;28;20032;-91
2022/09/21 03:58:48;;;;;;;4.72;3.00;;;5.90;99.90;;;;;;5027119;28;20039;-93
2022/09/21 04:01:14;;;;;;;7.85;3.00;;;5.80;99.90;;;;;;5042292;28;20036;-91
2022/09/21 04:03:39;;;;;;;4.13;2.80;;;5.70;99.90;;;;;;5021935;28;20036;-92
2022/09/21 04:06:11;;;;;;;5.88;2.80;;;5.90;99.90;;;;;;5024635;28;20071;-94
2022/09/21 04:08:38;;;;;;;5.65;3.20;;;5.70;99.90;;;;;;5032201;28;20047;-90
2022/09/21 04:11:24;;;;;;;4.85;3.13;;;5.90;99.90;;;;;;5025007;28;20213;-91
2022/09/21 04:13:56;;;;;;;4.25;2.80;;;5.70;99.90;;;;;;5020486;28;20491;-92
2022/09/21 04:16:26;;;;;;;5.10;2.50;;;5.70;99.90;;;;;;5038341;28;20527;-92
2022/09/21 04:18:52;;;;;;;4.07;2.42;;;5.90;99.90;;;;;;5040766;28;20047;-93
2022/09/21 04:21:19;;;;;;;7.75;2.92;;;5.80;99.90;;;;;;5048453;28;20044;-91
2022/09/21 04:23:45;;;;;;;5.38;2.88;;;5.70;99.90;;;;;;5038841;28;20051;-93
2022/09/21 04:26:29;;;;;;;5.38;3.00;;;5.80;99.90;;;;;;5023097;28;20055;-92
2022/09/21 04:28:55;;;;;;;5.03;2.47;;;5.70;99.90;;;;;;5015173;28;20045;-92
2022/09/21 04:31:22;;;;;;;3.05;2.20;;;5.80;99.90;;;;;;5020422;28;20468;-93
2022/09/21 04:33:49;;;;;;;4.38;3.03;;;5.70;99.90;;;;;;5019553;28;20041;-92
2022/09/21 04:36:17;;;;;;;4.25;2.58;;;5.60;99.90;;;;;;5027254;28;20043;-92
2022/09/21 04:38:43;;;;;;;3.53;2.33;;;5.70;99.90;;;;;;5036485;28;20070;-93
2022/09/21 04:41:09;;;;;;;5.70;2.60;;;5.60;99.90;;;;;;5023756;28;20036;-92
2022/09/21 04:43:41;;;;;;;3.55;2.58;;;5.60;99.90;;;;;;5025092;28;20044;-91
2022/09/21 04:46:12;;;;;;;4.63;2.65;;;5.70;99.90;;;;;;5026864;28;20059;-91
2022/09/21 04:48:38;;;;;;;4.55;2.90;;;5.50;99.90;;;;;;5038093;28;20052;-90
2022/09/21 04:51:06;;;;;;;3.50;2.83;;;5.60;99.90;;;;;;5043070;28;20150;-92
2022/09/21 04:53:33;;;;;;;6.38;2.80;;;5.40;99.90;;;;;;5022992;28;20032;-93
2022/09/21 04:55:59;;;;;;;3.95;2.67;;;5.60;99.90;;;;;;5025468;28;20032;-91
2022/09/21 04:58:27;;;;;;;3.47;2.70;;;5.60;99.90;;;;;;5026172;28;20492;-92
2022/09/21 05:00:54;;;;;;;4.70;2.35;;;5.50;99.90;;;;;;5021069;28;20474;-91
2022/09/21 05:03:22;;;;;;;4.93;2.60;;;5.50;99.90;;;;;;5020182;28;20048;-93
2022/09/21 05:05:50;;;;;;;2.95;2.35;;;5.40;99.90;;;;;;5015870;28;20288;-91
2022/09/21 05:08:16;;;;;;;3.38;2.88;;;5.50;99.90;;;;;;5025744;28;20039;-91
2022/09/21 05:10:45;;;;;;;4.47;2.08;;;5.50;99.90;;;;;;5014665;28;20300;-92
2022/09/21 05:13:11;;;;;;;4.20;2.70;;;5.40;99.90;;;;;;5018898;28;20055;-92
2022/09/21 05:15:38;;;;;;;3.33;2.33;;;5.40;99.90;;;;;;5050224;28;20607;-93
2022/09/21 05:18:04;;;;;;;2.28;2.08;;;5.50;99.90;;;;;;5024391;28;20029;-91
2022/09/21 05:20:30;;;;;;;3.28;1.92;;;5.50;99.90;;;;;;5022953;28;20150;-92
2022/09/21 05:23:00;;;;;;;2.85;1.90;;;5.40;99.90;;;;;;5036830;28;20473;-93
2022/09/21 05:25:26;;;;;;;5.05;2.20;;;5.40;99.90;;;;;;5035672;28;20514;-92
2022/09/21 05:27:52;;;;;;;2.33;2.10;;;5.30;99.90;;;;;;5037597;28;20051;-92
2022/09/21 05:30:18;;;;;;;3.95;1.88;;;5.50;99.90;;;;;;5038555;28;20044;-93
2022/09/21 05:32:46;;;;;;;4.90;2.20;;;5.40;99.90;;;;;;5026044;28;20032;-91
2022/09/21 05:35:28;;;;;;;7.03;3.05;;;5.50;99.90;;;;;;5019717;28;20048;-91
2022/09/21 05:38:17;;;;;;;5.55;2.90;;;5.60;99.90;;;;;;5020562;28;20037;-92
2022/09/21 05:40:45;;;;;;;4.78;2.95;;;5.60;99.90;;;;;;5033929;28;20040;-92
2022/09/21 05:43:11;;;;;;;6.22;3.03;;;5.50;99.90;;;;;;5038685;28;20079;-91
2022/09/21 05:45:42;;;;;;;6.80;2.65;;;5.60;99.90;;;;;;5024309;28;20609;-92
2022/09/21 05:48:13;;;;;;;5.35;3.22;;;5.70;99.90;;;;;;5040294;28;20064;-92
2022/09/21 05:50:56;;;;;;;6.13;3.53;;;5.60;99.90;;;;;;5038319;28;20045;-92
2022/09/21 05:53:36;;;;;;;5.55;2.90;;;5.80;99.90;;;;;;5021794;28;20045;-91
2022/09/21 05:56:15;;;;;;;9.68;3.58;;;5.80;99.90;;;;;;5040807;28;20028;-92
2022/09/21 05:59:10;;;;;;;5.75;3.20;;;5.90;99.90;;;;;;5024720;28;20169;-92
2022/09/21 06:01:57;;;;;;;4.72;3.13;;;6.00;99.90;;;;;;5033155;28;20049;-92
2022/09/21 06:04:23;;;;;;;4.35;2.58;;;5.90;99.90;;;;;;5036270;28;20040;-91
2022/09/21 06:06:49;;;;;;;3.72;2.60;;;6.00;99.90;;;;;;5019750;28;20111;-91
2022/09/21 06:09:14;;;;;;;5.40;2.67;;;6.10;99.90;;;;;;5018162;28;20542;-91
2022/09/21 06:11:41;;;;;;;5.22;3.08;;;6.20;99.90;;;;;;5031935;28;20134;-92
2022/09/21 06:14:07;;;;;;;4.80;3.10;;;6.20;99.90;;;;;;5039031;28;20488;-92
2022/09/21 06:16:40;;;;;;;6.22;3.80;;;6.20;99.90;;;;;;5022761;28;20494;-90
2022/09/21 06:19:06;;;;;;;7.63;3.42;;;6.50;99.90;;;;;;5022277;28;20493;-91
2022/09/21 06:21:32;;;;;;;8.35;3.83;;;6.40;99.90;;;;;;5029319;28;20146;-92
2022/09/21 06:23:57;;;;;;;7.70;3.90;;;6.70;99.90;;;;;;5029903;28;20103;-91
2022/09/21 06:26:23;;;;;;;9.32;4.40;;;6.80;99.90;;;;;;5013989;28;20178;-92
2022/09/21 06:28:51;;;;;;;11.30;5.45;;;6.70;99.90;;;;;;5040226;28;20067;-92
2022/09/21 06:31:17;;;;;;;13.13;5.57;;;6.90;99.90;;;;;;5018780;28;20254;-91
2022/09/21 06:33:43;;;;;;;9.35;4.13;;;7.00;99.90;;;;;;5017496;28;20032;-91
2022/09/21 06:36:11;;;;;;;8.55;4.40;;;7.00;99.90;;;;;;5036667;28;20391;-90
2022/09/21 06:38:36;;;;;;;8.23;4.40;;;7.10;99.90;;;;;;5014224;28;20047;-91
2022/09/21 06:41:06;;;;;;;8.90;5.00;;;7.30;99.90;;;;;;5037240;28;20112;-91
2022/09/21 06:43:34;;;;;;;12.93;6.53;;;7.50;99.90;;;;;;5024347;28;20072;-90
2022/09/21 06:46:01;;;;;;;12.93;5.40;;;7.50;99.90;;;;;;5033465;28;20043;-91
2022/09/21 06:48:28;;;;;;;12.10;4.75;;;7.60;99.90;;;;;;5031309;28;20213;-92
2022/09/21 06:51:01;;;;;;;9.80;4.72;;;7.80;99.90;;;;;;5035049;28;20037;-90
2022/09/21 06:53:28;;;;;;;7.43;4.60;;;7.90;99.90;;;;;;5017100;28;20048;-92
2022/09/21 06:56:03;;;;;;;11.23;6.15;;;8.00;99.90;;;;;;5018537;28;20047;-91
2022/09/21 06:58:30;;;;;;;11.35;5.03;;;8.20;99.90;;;;;;5025164;28;20182;-92
2022/09/21 07:00:56;;;;;;;8.27;5.05;;;8.30;99.90;;;;;;5025948;28;20040;-91
2022/09/21 07:03:21;;;;;;;9.00;5.38;;;8.50;99.90;;;;;;5036555;28;20040;-90
2022/09/21 07:05:48;;;;;;;9.50;5.78;;;8.60;99.90;;;;;;5018913;28;20044;-92
2022/09/21 07:08:14;;;;;;;8.55;5.40;;;8.70;99.90;;;;;;5037754;28;20041;-90
2022/09/21 07:10:39;;;;;;;9.30;5.38;;;8.90;99.90;;;;;;5019275;28;20055;-91
2022/09/21 07:13:08;;;;;;;12.80;5.45;;;9.00;99.90;;;;;;5024510;28;20162;-91
2022/09/21 07:15:34;;;;;;;10.48;4.38;;;9.10;99.90;;;;;;5023670;28;20037;-91
2022/09/21 07:17:59;;;;;;;7.82;4.53;;;9.30;99.90;;;;;;5024640;28;20037;-91
2022/09/21 07:20:25;;;;;;;12.48;4.90;;;9.50;99.90;;;;;;5023343;28;20055;-91
2022/09/21 07:22:51;;;;;;;9.70;4.70;;;9.60;99.90;;;;;;5042440;28;20052;-91
2022/09/21 07:25:17;;;;;;;7.75;4.57;;;9.70;99.90;;;;;;5023329;28;20044;-91
2022/09/21 07:27:49;;;;;;;8.40;4.43;;;9.80;99.90;;;;;;5039055;28;20044;-90
2022/09/21 07:30:15;;;;;;;10.75;4.03;;;10.00;99.90;;;;;;5041534;28;20040;-91
2022/09/21 07:32:41;;;;;;;7.90;4.10;;;10.20;99.90;;;;;;5023158;28;20059;-90
2022/09/21 07:35:07;;;;;;;8.25;4.30;;;10.40;99.90;;;;;;5037582;28;20040;-91
2022/09/21 07:37:35;;;;;;;11.55;4.95;;;10.30;99.90;;;;;;5036368;28;20037;-91
2022/09/21 07:40:04;;;;;;;11.90;3.65;;;10.50;99.90;;;;;;5036661;28;20048;-91
2022/09/21 07:42:30;;;;;;;9.45;4.30;;;10.70;99.90;;;;;;5041832;28;20126;-91
2022/09/21 07:44:57;;;;;;;10.13;3.90;;;10.80;99.90;;;;;;5022392;28;20066;-92
2022/09/21 07:47:24;;;;;;;12.75;3.60;;;11.00;99.90;;;;;;5039083;28;20040;-91
2022/09/21 07:49:50;;;;;;;7.57;3.40;;;11.10;99.90;;;;;;5016300;28;20136;-92
2022/09/21 07:52:16;;;;;;;8.05;3.28;;;11.20;99.90;;;;;;5020842;28;20109;-91
2022/09/21 07:54:44;;;;;;;8.43;3.55;;;11.40;99.90;;;;;;5036138;28;20513;-91
2022/09/21 07:59:57;;;;;;;10.00;3.60;;;11.60;99.90;;;;;;5040088;28;20052;-89
2022/09/21 08:02:23;;;;;;;5.93;3.20;;;11.70;99.90;;;;;;5020460;28;20049;-92
2022/09/21 08:04:54;;;;;;;7.25;3.05;;;11.80;99.90;;;;;;5021208;28;20060;-91
2022/09/21 08:07:20;;;;;;;8.50;2.85;;;12.10;99.90;;;;;;5048333;28;20041;-91
2022/09/21 08:09:49;;;;;;;7.93;2.70;;;12.20;99.90;;;;;;5015563;28;20098;-90
2022/09/21 08:12:18;;;;;;;7.63;2.80;;;12.30;99.90;;;;;;5014564;28;20037;-91
2022/09/21 08:14:44;;;;;;;10.32;3.15;;;12.40;99.90;;;;;;5026403;28;20045;-90
2022/09/21 08:17:10;;;;;;;8.73;1.95;;;12.40;99.90;;;;;;5012238;28;20087;-90
2022/09/21 08:19:35;;;;;;;12.02;2.20;;;12.50;99.90;;;;;;5013448;28;20045;-90
2022/09/21 08:22:01;;;;;;;9.10;2.35;;;12.70;99.90;;;;;;5019880;28;20041;-90
2022/09/21 08:24:27;;;;;;;5.20;2.13;;;12.70;99.90;;;;;;5042959;28;20091;-90
2022/09/21 08:26:54;;;;;;;5.47;2.42;;;12.60;99.90;;;;;;5016220;28;20041;-90
2022/09/21 08:29:20;;;;;;;5.75;2.10;;;12.90;99.90;;;;;;5014835;28;20037;-90
2022/09/21 08:31:49;;;;;;;7.45;2.47;;;13.00;99.90;;;;;;5017736;28;20485;-91
2022/09/21 08:34:15;;;;;;;8.00;2.42;;;13.10;99.90;;;;;;5017790;28;20033;-90
2022/09/21 08:36:41;;;;;;;9.02;2.00;;;13.20;99.90;;;;;;5014377;28;20040;-90
2022/09/21 08:39:09;;;;;;;6.60;2.10;;;13.20;99.90;;;;;;5015582;28;20656;-89
2022/09/21 08:42:00;;;;;;;6.32;1.80;;;13.50;99.90;;;;;;5027541;28;20088;-90
2022/09/21 08:44:38;;;;;;;6.97;2.40;;;13.60;99.90;;;;;;5018369;28;20075;-90
2022/09/21 08:47:37;;;;;;;9.65;1.98;;;13.70;99.90;;;;;;5016183;28;20057;-90
2022/09/21 08:50:28;;;;;;;5.72;1.67;;;13.90;99.90;;;;;;5029368;28;20075;-89
2022/09/21 08:53:02;;;;;;;6.20;1.75;;;13.90;99.90;;;;;;5019178;28;20037;-90
2022/09/21 08:55:28;;;;;;;4.67;1.30;;;14.00;99.90;;;;;;5014663;28;20033;-90
2022/09/21 08:57:58;;;;;;;9.60;1.55;;;14.10;1.00;;;;;;5011120;28;20036;-89
2022/09/21 09:00:24;;;;;;;4.55;0.98;;;14.20;99.90;;;;;;5016182;28;20080;-90
2022/09/21 09:03:38;;;;;;;6.57;1.27;;;14.20;9.80;;;;;;5018019;28;20480;-90
2022/09/21 09:06:28;;;;;;;3.60;1.10;;;14.30;11.10;;;;;;4984845;28;20053;-88
2022/09/21 09:09:01;;;;;;;6.47;1.42;;;14.40;1.00;;;;;;5033066;28;20226;-88
2022/09/21 09:11:42;;;;;;;8.15;1.40;;;14.50;74.10;;;;;;5002381;28;20054;-90
2022/09/21 09:14:28;;;;;;;6.63;1.25;;;14.50;1.00;;;;;;5027812;28;20033;-90
2022/09/21 09:17:13;;;;;;;4.30;1.13;;;14.70;1.00;;;;;;5037665;28;20431;-90
2022/09/21 09:19:51;;;;;;;6.70;1.20;;;14.80;1.00;;;;;;5030419;28;20040;-90
2022/09/21 09:22:28;;;;;;;5.15;1.30;;;14.90;99.90;;;;;;5001008;28;20045;-89
2022/09/21 09:24:59;;;;;;;5.00;1.38;;;15.00;99.90;;;;;;5042809;28;20146;-88
2022/09/21 09:27:39;;;;;;;5.93;0.95;;;15.10;99.90;;;;;;5011903;28;20128;-89
2022/09/21 09:30:25;;;;;;;5.00;1.17;;;15.30;99.90;;;;;;5037298;28;20048;-90
2022/09/21 09:32:56;;;;;;;4.88;1.27;;;15.30;99.90;;;;;;5042663;28;20033;-90
2022/09/21 09:35:45;;;;;;;5.47;1.35;;;15.30;99.90;;;;;;5016737;28;20281;-91
2022/09/21 09:38:26;;;;;;;5.28;1.00;;;15.40;99.90;;;;;;5034172;28;20057;-90
2022/09/21 09:41:16;;;;;;;7.18;1.20;;;15.50;99.90;;;;;;5040688;28;20702;-92
2022/09/21 09:44:00;;;;;;;4.22;1.10;;;15.60;99.90;;;;;;5032482;28;20045;-90
2022/09/21 09:46:54;;;;;;;3.72;0.90;;;15.60;99.90;;;;;;5027249;28;20144;-90
2022/09/21 09:49:56;;;;;;;8.73;1.08;;;15.60;1.00;;;;;;5004823;28;20045;-90
2022/09/21 09:52:21;;;;;;;5.75;1.65;;;15.60;99.90;;;;;;5043615;28;20116;-89
2022/09/21 09:54:47;;;;;;;4.07;1.13;;;15.90;99.90;;;;;;5007236;28;20116;-91
2022/09/21 09:57:16;;;;;;;3.15;1.30;;;15.90;99.90;;;;;;5042600;28;20030;-90
2022/09/21 09:59:50;;;;;;;5.53;1.20;;;15.90;99.90;;;;;;5006140;28;20045;-89
2022/09/21 10:02:24;;;;;;;6.82;1.20;;;16.00;99.90;;;;;;5039605;28;20038;-90
2022/09/21 10:04:54;;;;;;;5.63;1.10;;;16.40;99.90;;;;;;5029716;28;20059;-90
2022/09/21 10:07:36;;;;;;;3.90;1.30;;;16.40;99.90;;;;;;5030414;28;20045;-90
2022/09/21 10:10:20;;;;;;;4.13;0.90;;;16.50;99.90;;;;;;5030360;28;20195;-89
2022/09/21 10:12:46;;;;;;;4.15;1.13;;;16.30;99.90;;;;;;5012929;28;20040;-90
2022/09/21 10:15:15;;;;;;;2.95;0.82;;;16.70;99.90;;;;;;5016764;28;20049;-91
2022/09/21 10:17:41;;;;;;;4.10;0.85;;;16.70;6.90;;;;;;5016516;28;20508;-91
2022/09/21 10:20:19;;;;;;;4.05;0.80;;;16.90;79.40;;;;;;5012908;28;20103;-90
2022/09/21 10:22:52;;;;;;;5.45;1.13;;;16.80;1.00;;;;;;5014500;28;20037;-90
2022/09/21 10:25:19;;;;;;;3.38;0.90;;;17.10;1.00;;;;;;5006269;28;20704;-90
2022/09/21 10:27:48;;;;;;;4.22;1.00;;;17.20;1.00;;;;;;5015598;28;20048;-90
2022/09/21 10:30:29;;;;;;;4.97;1.00;;;17.30;1.00;;;;;;5017583;28;20103;-89
2022/09/21 10:32:57;;;;;;;2.70;0.77;;;17.50;1.00;;;;;;5015344;28;20038;-91
2022/09/21 10:35:24;;;;;;;7.63;1.20;;;17.50;1.00;;;;;;5014460;28;20073;-90
2022/09/21 10:38:10;;;;;;;5.15;1.13;;;17.60;1.00;;;;;;5031081;28;20029;-89
2022/09/21 10:40:38;;;;;;;5.13;1.00;;;17.60;1.00;;;;;;5009055;28;20120;-89
2022/09/21 10:43:04;;;;;;;3.75;0.90;;;17.90;99.90;;;;;;5011333;28;20045;-91
2022/09/21 10:45:35;;;;;;;4.72;1.10;;;17.70;99.90;;;;;;5029943;28;20103;-91
2022/09/21 10:48:04;;;;;;;2.90;0.93;;;17.90;99.90;;;;;;5018308;28;20087;-90
2022/09/21 10:50:36;;;;;;;7.85;1.20;;;17.80;99.90;;;;;;5018676;28;20048;-89
2022/09/21 10:53:16;;;;;;;4.35;1.15;;;17.80;99.90;;;;;;5015595;28;20030;-90
2022/09/21 10:55:58;;;;;;;5.05;1.13;;;17.70;99.90;;;;;;5024504;28;20550;-89
2022/09/21 10:58:24;;;;;;;2.67;0.85;;;17.70;99.90;;;;;;5015321;28;20065;-90
2022/09/21 11:00:56;;;;;;;3.97;1.15;;;17.40;99.90;;;;;;5038630;28;20052;-91
2022/09/21 11:03:32;;;;;;;2.13;0.70;;;17.20;99.90;;;;;;5039152;28;20298;-90
2022/09/21 11:06:07;;;;;;;5.03;1.20;;;17.30;99.90;;;;;;5022660;28;20052;-90
2022/09/21 11:08:35;;;;;;;;;;;17.70;99.90;;;;;;5012817;28;20041;-91
2022/09/21 11:11:33;;;;;;;3.15;0.82;;;17.20;99.90;;;;;;5040822;28;20122;-92
2022/09/21 11:14:38;;;;;;;3.97;0.82;;;17.60;99.90;;;;;;5014631;28;20036;-91
2022/09/21 11:17:13;;;;;;;2.30;0.73;;;17.50;99.90;;;;;;5022323;28;20075;-91
2022/09/21 11:20:11;;;;;;;4.40;0.93;;;17.50;99.90;;;;;;5040414;28;20044;-92
2022/09/21 11:22:41;;;;;;;4.63;1.00;;;17.40;99.90;;;;;;5023691;28;20053;-91
2022/09/21 11:25:29;;;;;;;2.35;0.85;;;17.60;99.90;;;;;;5018756;28;21033;-93
2022/09/21 11:28:03;;;;;;;3.75;0.98;;;17.80;99.90;;;;;;5025979;28;20119;-91
2022/09/21 11:30:52;;;;;;;5.22;0.88;;;18.20;99.90;;;;;;5015514;28;20051;-90
2022/09/21 11:33:37;;;;;;;3.70;0.85;;;18.10;99.90;;;;;;5017288;28;20498;-91
2022/09/21 11:36:43;;;;;;;3.97;0.98;;;17.90;99.90;;;;;;5023228;28;20492;-92
2022/09/21 11:39:17;;;;;;;3.83;0.80;;;17.90;99.90;;;;;;4982695;28;20051;-90
2022/09/21 11:42:01;;;;;;;3.65;0.75;;;17.60;99.90;;;;;;5017298;28;20456;-91
2022/09/21 11:44:37;;;;;;;4.40;0.75;;;18.00;99.90;;;;;;5019689;28;20496;-90
2022/09/21 11:47:21;;;;;;;3.67;0.77;;;17.70;99.90;;;;;;5041179;28;20040;-90
2022/09/21 11:50:22;;;;;;;5.00;1.08;;;17.50;99.90;;;;;;5017502;28;20036;-92
2022/09/21 11:53:32;;;;;;;2.97;0.82;;;17.70;99.90;;;;;;5008629;28;20715;-90
2022/09/21 11:56:34;;;;;;;3.58;1.10;;;17.80;99.90;;;;;;4990179;28;20490;-92
2022/09/21 11:59:21;;;;;;;5.53;1.00;;;17.80;95.80;;;;;;5045455;28;20037;-92
2022/09/21 12:02:08;;;;;;;6.10;1.08;;;18.10;99.90;;;;;;5018703;28;20040;-92
2022/09/21 12:04:54;;;;;;;2.58;0.75;;;18.30;99.90;;;;;;5022788;28;20094;-92
2022/09/21 12:07:42;;;;;;;5.68;0.85;;;18.50;97.90;;;;;;5022880;28;20805;-92
2022/09/21 12:10:33;;;;;;;2.63;0.80;;;18.70;99.90;;;;;;5015285;28;20056;-93
2022/09/21 12:13:09;;;;;;;8.85;3.00;;;18.80;99.90;;;;;;5013709;28;20041;-91
2022/09/21 12:16:05;;;;;;;5.22;1.70;;;18.90;99.90;;;;;;5023054;28;20120;-92
2022/09/21 12:18:59;;;;;;;4.63;1.08;;;19.20;99.90;;;;;;5022989;28;20150;-92
2022/09/21 12:21:37;;;;;;;5.00;1.63;;;19.20;94.00;;;;;;5055220;28;20041;-92
2022/09/21 12:24:24;;;;;;;2.47;1.05;;;19.20;85.40;;;;;;5043793;28;20137;-92
2022/09/21 12:27:00;;;;;;;4.43;0.98;;;19.00;16.20;;;;;;5024780;28;20418;-93
2022/09/21 12:29:46;;;;;;;2.20;0.60;;;19.00;10.20;;;;;;5040907;28;20433;-91
2022/09/21 12:32:48;;;;;;;3.33;0.50;;;19.20;37.30;;;;;;5019629;28;20267;-92
2022/09/21 12:35:19;;;;;;;2.80;0.60;;;19.60;40.70;;;;;;5035958;28;20045;-92
2022/09/21 12:37:54;;;;;;;2.60;0.73;;;19.60;54.10;;;;;;5021053;28;20164;-93
2022/09/21 12:40:39;;;;;;;4.97;1.05;;;19.50;65.10;;;;;;5017833;28;20098;-93
2022/09/21 12:43:42;;;;;;;5.28;1.35;;;19.70;20.10;;;;;;5033150;28;20042;-94
2022/09/21 12:46:17;;;;;;;3.90;0.90;;;20.10;56.60;;;;;;5037703;28;20041;-93
2022/09/21 12:48:44;;;;;;;;;;;20.00;42.90;;;;;;5018833;28;20168;-93
2022/09/21 12:51:33;;;;;;;3.05;0.73;;;20.20;6.80;;;;;;5035758;28;19925;-93
2022/09/21 12:54:05;;;;;;;2.47;0.63;;;19.80;20.80;;;;;;5036622;28;20079;-93
2022/09/21 12:56:48;;;;;;;2.53;0.68;;;20.10;1.00;;;;;;5026794;28;20044;-93
2022/09/21 12:59:29;;;;;;;2.63;1.20;;;20.30;1.00;;;;;;5012737;28;20226;-93
2022/09/21 13:02:11;;;;;;;5.40;0.85;;;19.50;1.00;;;;;;5044936;28;20064;-94
2022/09/21 13:05:14;;;;;;;2.53;0.55;;;19.70;1.00;;;;;;5016807;28;20140;-93
2022/09/21 13:07:54;;;;;;;3.72;0.63;;;19.90;1.00;;;;;;5035015;28;20080;-94
2022/09/21 13:10:54;;;;;;;6.60;0.73;;;20.00;1.00;;;;;;5035780;28;20056;-93
2022/09/21 13:13:38;;;;;;;2.60;0.60;;;20.40;1.00;;;;;;5023366;28;20037;-93
2022/09/21 13:16:31;;;;;;;4.65;1.10;;;20.50;1.00;;;;;;5063522;28;20029;-94
2022/09/21 13:19:03;;;;;;;2.25;0.80;;;20.40;1.00;;;;;;5428738;22;20021;-92
2022/09/21 13:21:31;;;;;;;1.50;0.80;;;20.50;1.00;;;;;;5013196;28;20050;-92
2022/09/21 13:24:07;;;;;;;2.33;0.55;;;20.50;1.00;;;;;;4995578;28;20026;-92
2022/09/21 14:06:34;;;;;;;1.85;0.50;;;21.70;1.00;;;;;;5723863;23;20063;-92
2022/09/21 14:14:40;;;;;;;3.00;0.80;;;24.50;1.00;;;;;;5382787;23;20034;-93
2022/09/21 14:25:29;;;;;;;2.90;0.68;;;23.60;99.90;;;;;;5268124;23;20092;-93